Juliana Airport, Saint Maartin

4:45 PM AST on July 29, 2016 (GMT -0400)
Island 92 | | Change Station

Elev 20 ft 18.03 °N, 63.09 °W | Updated 1 minute ago

Scattered Clouds
Scattered Clouds
85.6 °F
Feels Like 92 °F
N
12.5
Wind Variable Wind from NNE

Today
High -- | Low -- °F
--% Chance of Precip.
Yesterday
High -- | Low -- °F
Precip. -- in
Pressure 29.95 in
Visibility 6.2 miles
Clouds Scattered Clouds 2000 ft
Heat Index 92 °F
Dew Point 72 °F
Humidity 64%
Rainfall 0.39 in
Snow Depth Not available.
5:50 AM 6:47 PM
Waning Crescent, 19% visible
METAR TNCM 292000Z 09013KT 060V120 9999 SCT020 31/24 Q1014 A2996 NOSIG RMK HZ ALQDS
Pressure 29.95 in
Visibility 6.2 miles
Clouds Scattered Clouds 2000 ft
Heat Index 92 °F
Dew Point 72 °F
Humidity 64%
Rainfall 0.39 in
Snow Depth Not available.
5:50 AM 6:47 PM
Waning Crescent, 19% visible
METAR TNCM 292000Z 09013KT 060V120 9999 SCT020 31/24 Q1014 A2996 NOSIG RMK HZ ALQDS

10-Day Weather Forecast

No radar image for this location.
×

Almanac

Astronomy

Jul. 29, 2016 Rise Set
Actual Time
Civil Twilight
Nautical Twilight
Astronomical Twilight
Moon
Length of Visible Light
Length of Day
Tomorrow will be .
, % of the Moon is Illuminated

Today's Extremes

Country Highs Country Lows

Community

WunderPhotos

Upload Photos

1,928,411 photos uploaded!

WunderBlog® & News

Nearby

Air Quality

  Air Quality AQ Index Pollutant
Not available.

Snow Depth

Station Depth Elevation

Earthquake Activity

City Distance Mag. Time & Date
Minimum magnitude displayed is 2.5.

Coastal Water Temperatures

Place Temperature

Stations

Nearby Weather Stations

Station Location Temp. Windchill Dew Point Humidity Wind Precip. Elev Updated Type